Time,TemperatureF,DewpointF,PressureIn,WindDirection,WindDirectionDegrees,WindSpeedMPH,WindSpeedGustMPH,Humidity,HourlyPrecipIn,Conditions,Clouds,dailyrainin,SolarRadiationWatts/m^2,SoftwareType,DateUTC
2013-08-15 00:00:00,67.5,61.8,29.94,ESE,114,0.0,1.0,82,0.00,FEW,SCT,0.00,0.0,WeatherDisplay:10.37,2013-08-15 10:00:00,
2013-08-15 00:10:00,66.8,61.5,29.93,ESE,114,0.0,1.0,83,0.00,FEW,SCT,0.00,0.0,WeatherDisplay:10.37,2013-08-15 10:10:00,
2013-08-15 00:20:00,66.1,61.5,29.93,ESE,114,0.0,0.0,85,0.00,FEW,SCT,0.00,0.0,WeatherDisplay:10.37,2013-08-15 10:20:00,
2013-08-15 00:30:00,65.4,61.1,29.93,ESE,114,0.0,1.0,86,0.00,FEW,SCT,0.00,0.0,WeatherDisplay:10.37,2013-08-15 10:30:00,
2013-08-15 00:40:00,64.9,61.0,29.93,ESE,114,0.0,3.0,87,0.00,FEW,SCT,0.00,0.0,WeatherDisplay:10.37,2013-08-15 10:40:00,
2013-08-15 00:50:00,64.5,60.9,29.93,ESE,114,0.0,2.0,88,0.00,FEW,SCT,0.00,0.0,WeatherDisplay:10.37,2013-08-15 10:50:00,
2013-08-15 01:00:00,64.2,60.9,29.93,ESE,114,0.0,3.0,89,0.00,FEW,SCT,0.00,0.0,WeatherDisplay:10.37,2013-08-15 11:00:00,
2013-08-15 01:10:00,64.0,60.7,29.92,ESE,114,0.0,3.0,89,0.00,CLR,SCT,0.00,0.0,WeatherDisplay:10.37,2013-08-15 11:10:00,
2013-08-15 01:20:00,63.7,60.7,29.92,ESE,114,1.0,3.0,90,0.00,CLR,SCT,0.00,0.0,WeatherDisplay:10.37,2013-08-15 11:20:00,
2013-08-15 01:30:00,63.6,60.6,29.92,ESE,114,0.0,1.0,90,0.00,CLR,SCT,0.00,0.0,WeatherDisplay:10.37,2013-08-15 11:30:00,
2013-08-15 01:40:00,63.5,60.8,29.91,ESE,114,2.0,4.0,91,0.00,CLR,SCT,0.00,0.0,WeatherDisplay:10.37,2013-08-15 11:40:00,
2013-08-15 01:50:00,63.5,60.8,29.91,ESE,114,1.0,5.0,91,0.00,CLR,SCT,0.00,0.0,WeatherDisplay:10.37,2013-08-15 11:50:00,
2013-08-15 02:00:00,64.0,61.6,29.91,NE,52,0.0,7.0,92,0.00,CLR,SCT,0.00,0.0,WeatherDisplay:10.37,2013-08-15 12:00:00,
2013-08-15 02:10:00,64.4,61.1,29.91,SE,138,1.0,7.0,89,0.00,CLR,SCT,0.00,0.0,WeatherDisplay:10.37,2013-08-15 12:10:00,
2013-08-15 02:20:00,64.2,60.9,29.91,SE,138,1.0,4.0,89,0.00,CLR,SCT,0.00,0.0,WeatherDisplay:10.37,2013-08-15 12:20:00,
2013-08-15 02:30:00,64.1,61.1,29.91,SE,137,0.0,5.0,90,0.00,CLR,SCT,0.00,0.0,WeatherDisplay:10.37,2013-08-15 12:30:00,
2013-08-15 02:40:00,64.0,61.0,29.90,SE,137,1.0,4.0,90,0.00,CLR,SCT,0.00,0.0,WeatherDisplay:10.37,2013-08-15 12:40:00,
2013-08-15 02:50:00,63.7,60.4,29.91,SE,137,1.0,8.0,89,0.00,CLR,SCT,0.00,0.0,WeatherDisplay:10.37,2013-08-15 12:50:00,
2013-08-15 03:00:00,63.6,60.6,29.91,ENE,73,3.0,6.0,90,0.00,CLR,SCT,0.00,0.0,WeatherDisplay:10.37,2013-08-15 13:00:00,
2013-08-15 03:10:00,63.6,60.3,29.90,ENE,65,0.0,4.0,89,0.00,CLR,SCT,0.00,0.0,WeatherDisplay:10.37,2013-08-15 13:10:00,
2013-08-15 03:20:00,63.3,60.0,29.90,ENE,66,2.0,3.0,89,0.00,CLR,SCT,0.00,0.0,WeatherDisplay:10.37,2013-08-15 13:20:00,
2013-08-15 03:30:00,63.0,59.7,29.91,ENE,77,0.0,4.0,89,0.00,CLR,SCT,0.00,0.0,WeatherDisplay:10.37,2013-08-15 13:30:00,
2013-08-15 03:40:00,62.8,59.5,29.91,ENE,77,0.0,4.0,89,0.00,CLR,SCT,0.00,0.0,WeatherDisplay:10.37,2013-08-15 13:40:00,
2013-08-15 03:50:00,62.6,59.0,29.91,ENE,77,0.0,4.0,88,0.00,CLR,SCT,0.00,0.0,WeatherDisplay:10.37,2013-08-15 13:50:00,
2013-08-15 04:00:00,62.4,59.1,29.91,East,79,1.0,4.0,89,0.00,CLR,SCT,0.00,0.0,WeatherDisplay:10.37,2013-08-15 14:00:00,
2013-08-15 04:10:00,62.3,58.7,29.90,East,79,1.0,3.0,88,0.00,CLR,SCT,0.00,0.0,WeatherDisplay:10.37,2013-08-15 14:10:00,
2013-08-15 04:20:00,62.4,58.8,29.90,East,79,1.0,3.0,88,0.00,CLR,SCT,0.00,0.0,WeatherDisplay:10.37,2013-08-15 14:20:00,
2013-08-15 04:30:00,62.6,59.0,29.90,ESE,105,1.0,6.0,88,0.00,CLR,SCT,0.00,0.0,WeatherDisplay:10.37,2013-08-15 14:30:00,
2013-08-15 04:40:00,62.7,59.4,29.90,ESE,113,0.0,4.0,89,0.00,CLR,SCT,0.00,0.0,WeatherDisplay:10.37,2013-08-15 14:40:00,
2013-08-15 05:10:00,62.3,59.0,29.90,ESE,111,1.0,5.0,89,0.00,CLR,SCT,0.00,0.0,WeatherDisplay:10.37,2013-08-15 15:10:00,
2013-08-15 05:20:00,63.0,60.0,29.91,East,79,5.0,8.0,90,0.00,CLR,SCT,0.00,0.0,WeatherDisplay:10.37,2013-08-15 15:20:00,
2013-08-15 05:30:00,64.9,61.3,29.90,ENE,67,7.0,14.0,88,0.00,CLR,SCT,0.00,0.0,WeatherDisplay:10.37,2013-08-15 15:30:00,
2013-08-15 05:40:00,66.6,61.6,29.91,East,81,5.0,15.0,84,0.00,CLR,SCT,0.00,0.0,WeatherDisplay:10.37,2013-08-15 15:40:00,
2013-08-15 05:50:00,67.1,61.1,29.91,East,82,7.0,16.0,81,0.00,CLR,SCT,0.00,0.0,WeatherDisplay:10.37,2013-08-15 15:50:00,
2013-08-15 06:00:00,67.6,61.2,29.91,East,83,5.0,9.0,80,0.00,CLR,SCT,0.00,0.0,WeatherDisplay:10.37,2013-08-15 16:00:00,
2013-08-15 06:10:00,67.7,60.6,29.92,East,92,3.0,12.0,78,0.00,FEW,SCT,0.00,0.1,WeatherDisplay:10.37,2013-08-15 16:10:00,
2013-08-15 06:30:00,67.4,60.3,29.92,East,87,5.0,16.0,78,0.00,FEW,SCT,0.00,0.8,WeatherDisplay:10.37,2013-08-15 16:30:00,
2013-08-15 06:40:00,67.7,60.2,29.92,ENE,76,2.0,10.0,77,0.00,FEW,SCT,0.00,1.7,WeatherDisplay:10.37,2013-08-15 16:40:00,
2013-08-15 06:50:00,67.5,60.4,29.92,ENE,57,2.0,7.0,78,0.00,FEW,SCT,0.00,3.7,WeatherDisplay:10.37,2013-08-15 16:50:00,
2013-08-15 07:00:00,67.7,62.0,29.93,ENE,70,8.0,13.0,82,0.00,FEW,SCT,0.00,7.9,WeatherDisplay:10.37,2013-08-15 17:00:00,
2013-08-15 07:10:00,68.2,63.5,29.93,ENE,68,5.0,15.0,85,0.00,CLR,SCT,0.00,15.7,WeatherDisplay:10.37,2013-08-15 17:10:00,
2013-08-15 07:20:00,68.6,63.2,29.94,East,83,6.0,14.0,83,0.00,CLR,SCT,0.00,10.6,WeatherDisplay:10.37,2013-08-15 17:20:00,
2013-08-15 07:30:00,69.0,63.6,29.94,East,85,7.0,15.0,83,0.00,CLR,SCT,0.00,28.8,WeatherDisplay:10.37,2013-08-15 17:30:00,
2013-08-15 07:40:00,69.5,64.1,29.94,East,87,8.0,13.0,83,0.00,CLR,SCT,0.00,91.2,WeatherDisplay:10.37,2013-08-15 17:40:00,
2013-08-15 08:00:00,70.6,64.8,29.95,East,85,10.0,20.0,82,0.00,CLR,SCT,0.00,37.9,WeatherDisplay:10.37,2013-08-15 18:00:00,
2013-08-15 08:10:00,71.0,64.8,29.95,ENE,78,10.0,18.0,81,0.00,SCT,SCT,0.00,182.1,WeatherDisplay:10.37,2013-08-15 18:10:00,
2013-08-15 08:20:00,71.6,64.7,29.95,East,79,13.0,22.0,79,0.00,SCT,SCT,0.00,160.5,WeatherDisplay:10.37,2013-08-15 18:20:00,
2013-08-15 08:30:00,72.6,65.0,29.95,ENE,74,10.0,14.0,77,0.00,SCT,SCT,0.00,211.1,WeatherDisplay:10.37,2013-08-15 18:30:00,
2013-08-15 08:40:00,73.5,65.1,29.95,East,80,8.0,15.0,75,0.00,SCT,SCT,0.00,222.2,WeatherDisplay:10.37,2013-08-15 18:40:00,
2013-08-15 08:50:00,74.6,65.3,29.95,East,91,9.0,23.0,73,0.00,SCT,SCT,0.00,243.5,WeatherDisplay:10.37,2013-08-15 18:50:00,
2013-08-15 09:00:00,75.7,65.2,29.95,East,97,9.0,14.0,70,0.00,SCT,SCT,0.00,268.0,WeatherDisplay:10.37,2013-08-15 19:00:00,
2013-08-15 09:10:00,76.7,65.8,29.95,East,82,9.0,20.0,69,0.00,FEW,SCT,0.00,295.4,WeatherDisplay:10.37,2013-08-15 19:10:00,
2013-08-15 09:20:00,77.6,65.8,29.95,East,89,6.0,15.0,67,0.00,FEW,SCT,0.00,316.1,WeatherDisplay:10.37,2013-08-15 19:20:00,
2013-08-15 09:30:00,78.3,65.6,29.95,ENE,68,9.0,16.0,65,0.00,FEW,SCT,0.00,348.3,WeatherDisplay:10.37,2013-08-15 19:30:00,
2013-08-15 09:40:00,77.4,66.4,29.95,East,84,9.0,21.0,69,0.00,FEW,SCT,0.00,372.2,WeatherDisplay:10.37,2013-08-15 19:40:00,
2013-08-15 09:50:00,75.6,65.1,29.96,East,98,14.0,28.0,70,0.00,FEW,SCT,0.00,422.3,WeatherDisplay:10.37,2013-08-15 19:50:00,
2013-08-15 10:10:00,75.9,66.2,29.95,East,86,9.0,21.0,72,0.00,FEW,SCT,0.00,786.4,WeatherDisplay:10.37,2013-08-15 20:10:00,
2013-08-15 10:20:00,76.7,65.8,29.96,East,90,10.0,24.0,69,0.00,FEW,SCT,0.00,1081.3,WeatherDisplay:10.37,2013-08-15 20:20:00,
2013-08-15 10:30:00,77.9,65.6,29.96,East,84,12.0,23.0,66,0.00,FEW,SCT,0.00,1152.8,WeatherDisplay:10.37,2013-08-15 20:30:00,
2013-08-15 10:40:00,77.2,65.0,29.95,ENE,78,14.0,26.0,66,0.00,FEW,SCT,0.00,1194.0,WeatherDisplay:10.37,2013-08-15 20:40:00,
2013-08-15 10:50:00,76.9,65.5,29.95,ENE,76,13.0,24.0,68,0.00,FEW,SCT,0.00,1285.0,WeatherDisplay:10.37,2013-08-15 20:50:00,
2013-08-15 11:10:00,78.5,65.7,29.95,East,86,9.0,23.0,65,0.00,SCT,SCT,0.00,1420.5,WeatherDisplay:10.37,2013-08-15 21:10:00,
2013-08-15 11:20:00,78.4,64.8,29.95,East,81,12.0,23.0,63,0.00,SCT,SCT,0.00,1327.6,WeatherDisplay:10.37,2013-08-15 21:20:00,
2013-08-15 11:40:00,79.6,64.9,29.94,East,81,15.0,21.0,61,0.00,SCT,SCT,0.00,664.0,WeatherDisplay:10.37,2013-08-15 21:40:00,
2013-08-15 11:50:00,80.0,64.9,29.94,East,86,12.0,21.0,60,0.00,SCT,SCT,0.00,645.3,WeatherDisplay:10.37,2013-08-15 21:50:00,
2013-08-15 12:00:00,80.5,67.2,29.94,East,81,9.0,23.0,64,0.00,SCT,SCT,0.00,629.6,WeatherDisplay:10.37,2013-08-15 22:00:00,
2013-08-15 12:10:00,80.4,67.1,29.93,ENE,77,12.0,22.0,64,0.00,SCT,SCT,0.00,646.4,WeatherDisplay:10.37,2013-08-15 22:10:00,
2013-08-15 12:20:00,80.4,66.2,29.93,ENE,73,15.0,24.0,62,0.00,SCT,SCT,0.00,666.8,WeatherDisplay:10.37,2013-08-15 22:20:00,
2013-08-15 12:30:00,78.8,65.6,29.93,ENE,64,14.0,25.0,64,0.00,SCT,SCT,0.00,678.1,WeatherDisplay:10.37,2013-08-15 22:30:00,
2013-08-15 12:40:00,78.8,66.5,29.93,ENE,76,12.0,26.0,66,0.00,SCT,SCT,0.00,675.0,WeatherDisplay:10.37,2013-08-15 22:40:00,
2013-08-15 12:50:00,79.1,64.5,29.92,East,84,14.0,21.0,61,0.00,SCT,SCT,0.00,661.4,WeatherDisplay:10.37,2013-08-15 22:50:00,
2013-08-15 13:01:00,79.1,64.0,29.92,ENE,66,13.0,25.0,60,0.00,SCT,SCT,0.00,645.9,WeatherDisplay:10.37,2013-08-15 23:01:00,
2013-08-15 13:10:00,79.7,63.1,29.92,East,82,10.0,24.0,57,0.00,FEW,SCT,0.00,618.6,WeatherDisplay:10.37,2013-08-15 23:10:00,
2013-08-15 13:20:00,80.6,63.5,29.92,East,83,12.0,24.0,56,0.00,FEW,SCT,0.00,592.8,WeatherDisplay:10.37,2013-08-15 23:20:00,
2013-08-15 13:30:00,81.4,65.2,29.91,ENE,72,12.0,21.0,58,0.00,FEW,SCT,0.00,573.5,WeatherDisplay:10.37,2013-08-15 23:30:00,
2013-08-15 13:40:00,81.6,65.4,29.90,ENE,77,9.0,22.0,58,0.00,FEW,SCT,0.00,556.5,WeatherDisplay:10.37,2013-08-15 23:40:00,
2013-08-15 13:50:00,81.2,66.0,29.90,ENE,75,12.0,22.0,60,0.00,FEW,SCT,0.00,561.6,WeatherDisplay:10.37,2013-08-15 23:50:00,
2013-08-15 14:10:00,80.7,66.9,29.89,East,79,12.0,22.0,63,0.00,FEW,SCT,0.00,709.0,WeatherDisplay:10.37,2013-08-16 00:10:00,
2013-08-15 14:20:00,80.9,66.6,29.89,ENE,76,12.0,24.0,62,0.00,FEW,SCT,0.00,708.3,WeatherDisplay:10.37,2013-08-16 00:20:00,
2013-08-15 14:30:00,80.7,66.5,29.89,East,79,14.0,24.0,62,0.00,FEW,SCT,0.00,1155.7,WeatherDisplay:10.37,2013-08-16 00:30:00,
2013-08-15 14:40:00,81.0,67.2,29.89,ENE,71,10.0,24.0,63,0.00,FEW,SCT,0.00,1089.0,WeatherDisplay:10.37,2013-08-16 00:40:00,
2013-08-15 14:50:00,81.1,67.8,29.89,ENE,76,9.0,20.0,64,0.00,FEW,SCT,0.00,974.9,WeatherDisplay:10.37,2013-08-16 00:50:00,
2013-08-15 15:00:00,81.3,67.5,29.88,East,87,12.0,22.0,63,0.00,FEW,SCT,0.00,517.8,WeatherDisplay:10.37,2013-08-16 01:00:00,
2013-08-15 15:10:00,81.1,66.9,29.88,East,79,10.0,18.0,62,0.00,FEW,SCT,0.00,409.6,WeatherDisplay:10.37,2013-08-16 01:10:00,
2013-08-15 15:20:00,80.4,66.6,29.88,East,82,14.0,24.0,63,0.00,FEW,SCT,0.00,376.4,WeatherDisplay:10.37,2013-08-16 01:20:00,
2013-08-15 15:30:00,79.7,66.9,29.88,East,83,10.0,25.0,65,0.00,FEW,SCT,0.00,341.2,WeatherDisplay:10.37,2013-08-16 01:30:00,
2013-08-15 15:50:00,78.7,66.4,29.88,ENE,76,10.0,23.0,66,0.00,FEW,SCT,0.00,286.3,WeatherDisplay:10.37,2013-08-16 01:50:00,
2013-08-15 16:00:00,78.6,66.3,29.88,ENE,78,10.0,23.0,66,0.00,FEW,SCT,0.00,265.0,WeatherDisplay:10.37,2013-08-16 02:00:00,
2013-08-15 16:10:00,78.4,66.1,29.88,ENE,77,13.0,31.0,66,0.00,FEW,SCT,0.00,239.0,WeatherDisplay:10.37,2013-08-16 02:10:00,
2013-08-15 16:20:00,78.7,66.4,29.87,East,79,9.0,22.0,66,0.00,FEW,SCT,0.00,218.0,WeatherDisplay:10.37,2013-08-16 02:20:00,
2013-08-15 16:30:00,78.4,66.5,29.88,ENE,78,13.0,22.0,67,0.00,FEW,SCT,0.00,199.7,WeatherDisplay:10.37,2013-08-16 02:30:00,
2013-08-15 16:40:00,78.2,66.7,29.88,ENE,76,12.0,22.0,68,0.00,FEW,SCT,0.00,180.1,WeatherDisplay:10.37,2013-08-16 02:40:00,
2013-08-15 16:50:00,77.9,66.0,29.88,East,81,15.0,22.0,67,0.00,FEW,SCT,0.00,155.6,WeatherDisplay:10.37,2013-08-16 02:50:00,
2013-08-15 17:00:00,77.1,65.7,29.88,East,81,10.0,31.0,68,0.00,FEW,SCT,0.00,140.0,WeatherDisplay:10.37,2013-08-16 03:00:00,
2013-08-15 17:10:00,76.7,66.2,29.88,ENE,70,9.0,22.0,70,0.00,FEW,SCT,0.00,96.5,WeatherDisplay:10.37,2013-08-16 03:10:00,
2013-08-15 17:20:00,76.2,65.7,29.89,ENE,77,10.0,23.0,70,0.00,FEW,SCT,0.00,101.9,WeatherDisplay:10.37,2013-08-16 03:20:00,
2013-08-15 17:30:00,75.8,65.7,29.90,East,80,9.0,23.0,71,0.00,FEW,SCT,0.00,90.3,WeatherDisplay:10.37,2013-08-16 03:30:00,
2013-08-15 17:40:00,74.8,65.1,29.90,ENE,71,12.0,18.0,72,0.00,FEW,SCT,0.00,12.9,WeatherDisplay:10.37,2013-08-16 03:40:00,
2013-08-15 17:50:00,74.1,65.7,29.89,ENE,68,12.0,21.0,75,0.00,FEW,SCT,0.00,56.3,WeatherDisplay:10.37,2013-08-16 03:50:00,
2013-08-15 18:00:00,74.2,65.4,29.90,ENE,78,12.0,22.0,74,0.00,FEW,SCT,0.00,41.4,WeatherDisplay:10.37,2013-08-16 04:00:00,
2013-08-15 18:10:00,74.1,65.7,29.90,ENE,73,8.0,15.0,75,0.00,SCT,SCT,0.00,27.9,WeatherDisplay:10.37,2013-08-16 04:10:00,
2013-08-15 18:20:00,72.8,65.5,29.91,ENE,68,8.0,15.0,78,0.00,SCT,SCT,0.00,2.5,WeatherDisplay:10.37,2013-08-16 04:20:00,
2013-08-15 18:30:00,71.6,65.1,29.91,ENE,72,6.0,14.0,80,0.00,SCT,SCT,0.00,1.2,WeatherDisplay:10.37,2013-08-16 04:30:00,
2013-08-15 18:40:00,70.9,64.8,29.91,ENE,67,7.0,16.0,81,0.00,SCT,SCT,0.00,0.5,WeatherDisplay:10.37,2013-08-16 04:40:00,
2013-08-15 18:50:00,70.8,63.6,29.92,East,85,10.0,15.0,78,0.00,SCT,SCT,0.00,0.1,WeatherDisplay:10.37,2013-08-16 04:50:00,
2013-08-15 19:00:00,71.4,61.9,29.92,East,81,8.0,15.0,72,0.00,SCT,SCT,0.00,0.0,WeatherDisplay:10.37,2013-08-16 05:00:00,
2013-08-15 19:10:00,71.1,62.4,29.92,East,80,9.0,18.0,74,0.00,SCT,SCT,0.00,0.0,WeatherDisplay:10.37,2013-08-16 05:10:00,
2013-08-15 19:20:00,70.7,64.3,29.92,ENE,75,8.0,17.0,80,0.00,SCT,SCT,0.00,0.0,WeatherDisplay:10.37,2013-08-16 05:20:00,
2013-08-15 19:30:00,70.1,64.0,29.92,ENE,78,8.0,20.0,81,0.00,SCT,SCT,0.00,0.0,WeatherDisplay:10.37,2013-08-16 05:30:00,
2013-08-15 19:40:00,69.6,64.6,29.92,ENE,69,7.0,18.0,84,0.00,SCT,SCT,0.00,0.0,WeatherDisplay:10.37,2013-08-16 05:40:00,
2013-08-15 19:50:00,69.5,63.1,29.93,East,82,8.0,15.0,80,0.00,SCT,SCT,0.00,0.0,WeatherDisplay:10.37,2013-08-16 05:50:00,
2013-08-15 20:00:00,69.7,63.6,29.93,ENE,76,9.0,14.0,81,0.00,SCT,SCT,0.00,0.0,WeatherDisplay:10.37,2013-08-16 06:00:00,
2013-08-15 20:10:00,69.5,63.8,29.93,ENE,76,6.0,12.0,82,0.00,SCT,SCT,0.00,0.0,WeatherDisplay:10.37,2013-08-16 06:10:00,
2013-08-15 20:20:00,69.3,62.5,29.94,East,90,10.0,17.0,79,0.00,SCT,SCT,0.00,0.0,WeatherDisplay:10.37,2013-08-16 06:20:00,
2013-08-15 20:30:00,70.1,61.1,29.94,East,96,12.0,20.0,73,0.00,SCT,SCT,0.00,0.0,WeatherDisplay:10.37,2013-08-16 06:30:00,
2013-08-15 20:40:00,70.8,60.5,29.94,East,101,7.0,17.0,70,0.00,SCT,SCT,0.00,0.0,WeatherDisplay:10.37,2013-08-16 06:40:00,
2013-08-15 20:50:00,70.9,60.2,29.94,ESE,104,6.0,15.0,69,0.00,SCT,SCT,0.00,0.0,WeatherDisplay:10.37,2013-08-16 06:50:00,
2013-08-15 21:00:00,71.0,60.3,29.94,East,86,10.0,17.0,69,0.00,SCT,SCT,0.00,0.0,WeatherDisplay:10.37,2013-08-16 07:00:00,
2013-08-15 21:10:00,71.4,60.7,29.94,East,87,9.0,18.0,69,0.00,FEW,SCT,0.00,0.0,WeatherDisplay:10.37,2013-08-16 07:10:00,
2013-08-15 21:20:00,71.6,61.3,29.95,East,87,7.0,17.0,70,0.00,FEW,SCT,0.00,0.0,WeatherDisplay:10.37,2013-08-16 07:20:00,
2013-08-15 21:30:00,70.7,63.9,29.95,ENE,71,9.0,15.0,79,0.00,FEW,SCT,0.00,0.0,WeatherDisplay:10.37,2013-08-16 07:30:00,
2013-08-15 21:40:00,69.5,64.5,29.95,ENE,76,10.0,16.0,84,0.00,FEW,SCT,0.00,0.0,WeatherDisplay:10.37,2013-08-16 07:40:00,
2013-08-15 21:50:00,68.9,64.2,29.95,East,85,9.0,18.0,85,0.00,FEW,SCT,0.00,0.0,WeatherDisplay:10.37,2013-08-16 07:50:00,
2013-08-15 22:00:00,68.7,63.7,29.96,East,89,12.0,20.0,84,0.00,FEW,SCT,0.00,0.0,WeatherDisplay:10.37,2013-08-16 08:00:00,
2013-08-15 22:10:00,68.9,62.8,29.95,East,89,10.0,16.0,81,0.00,BKN,SCT,0.00,0.0,WeatherDisplay:10.37,2013-08-16 08:10:00,
2013-08-15 22:20:00,69.1,63.4,29.95,ENE,76,9.0,18.0,82,0.00,BKN,SCT,0.00,0.0,WeatherDisplay:10.37,2013-08-16 08:20:00,
2013-08-15 22:30:00,69.2,63.1,29.96,East,84,14.0,24.0,81,0.00,BKN,SCT,0.00,0.0,WeatherDisplay:10.37,2013-08-16 08:30:00,
2013-08-15 22:40:00,68.9,62.4,29.96,East,90,10.0,17.0,80,0.00,BKN,SCT,0.00,0.0,WeatherDisplay:10.37,2013-08-16 08:40:00,
2013-08-15 22:50:00,68.9,63.2,29.95,East,98,9.0,20.0,82,0.00,BKN,SCT,0.00,0.0,WeatherDisplay:10.37,2013-08-16 08:50:00,
2013-08-15 23:00:00,69.1,63.4,29.96,East,90,10.0,20.0,82,0.00,BKN,SCT,0.00,0.0,WeatherDisplay:10.37,2013-08-16 09:00:00,
2013-08-15 23:10:00,69.3,63.2,29.95,East,85,8.0,16.0,81,0.00,BKN,SCT,0.00,0.0,WeatherDisplay:10.37,2013-08-16 09:10:00,
2013-08-15 23:20:00,69.3,62.5,29.95,East,85,9.0,20.0,79,0.00,BKN,SCT,0.00,0.0,WeatherDisplay:10.37,2013-08-16 09:20:00,
2013-08-15 23:30:00,69.2,62.1,29.95,East,97,8.0,20.0,78,0.00,BKN,SCT,0.00,0.0,WeatherDisplay:10.37,2013-08-16 09:30:00,
2013-08-15 23:40:00,69.2,61.3,29.94,East,98,5.0,13.0,76,0.00,BKN,SCT,0.00,0.0,WeatherDisplay:10.37,2013-08-16 09:40:00,
2013-08-15 23:50:00,69.2,60.6,29.94,East,82,8.0,13.0,74,0.00,BKN,SCT,0.00,0.0,WeatherDisplay:10.37,2013-08-16 09:50:00,